Time,TemperatureF,DewpointF,PressureIn,WindDirection,WindDirectionDegrees,WindSpeedMPH,WindSpeedGustMPH,Humidity,HourlyPrecipIn,Conditions,Clouds,dailyrainin,SoftwareType,DateUTC
2013-04-01 09:25:00,49.9,40.5,29.85,WSW,250,4.0,13.0,70,0.00,,,0.00,Wunderground v.1.15,2013-04-01 13:25:00,
2013-04-01 09:30:00,50.1,40.7,29.85,NW,311,4.0,13.0,70,0.00,,,0.00,Wunderground v.1.15,2013-04-01 13:30:00,
2013-04-01 09:35:00,50.2,40.8,29.85,NW,306,5.0,10.0,70,0.00,,,0.00,Wunderground v.1.15,2013-04-01 13:35:00,
2013-04-01 09:40:00,50.4,41.0,29.85,WNW,293,5.0,10.0,70,0.00,,,0.00,Wunderground v.1.15,2013-04-01 13:40:00,
2013-04-01 09:50:00,51.2,41.4,29.85,WNW,286,4.0,10.0,69,0.00,,,0.00,Wunderground v.1.15,2013-04-01 13:50:00,
2013-04-01 10:00:00,52.3,41.7,29.85,WNW,292,5.0,5.0,67,0.00,,,0.00,Wunderground v.1.15,2013-04-01 14:00:00,
2013-04-01 10:10:00,52.2,40.8,29.86,NNW,327,7.0,7.0,65,0.00,,,0.00,Wunderground v.1.15,2013-04-01 14:10:00,
2013-04-01 10:20:00,50.6,40.8,29.86,WNW,300,7.0,7.0,69,0.00,,,0.00,Wunderground v.1.15,2013-04-01 14:20:00,
2013-04-01 10:30:00,51.2,41.4,29.86,WNW,291,5.0,6.0,69,0.00,,,0.00,Wunderground v.1.15,2013-04-01 14:30:00,
2013-04-01 10:40:00,50.5,41.4,29.86,NW,316,6.0,10.0,71,0.00,,,0.00,Wunderground v.1.15,2013-04-01 14:40:00,
2013-04-01 10:50:00,52.0,42.9,29.86,West,271,6.0,8.0,71,0.00,,,0.00,Wunderground v.1.15,2013-04-01 14:50:00,
2013-04-01 11:00:00,52.4,41.8,29.86,WNW,298,6.0,8.0,67,0.00,,,0.00,Wunderground v.1.15,2013-04-01 15:00:00,
2013-04-01 11:10:00,51.4,41.6,29.86,WNW,288,8.0,8.0,69,0.00,,,0.00,Wunderground v.1.15,2013-04-01 15:10:00,
2013-04-01 11:20:00,51.3,42.2,29.86,West,281,7.0,14.0,71,0.00,,,0.00,Wunderground v.1.15,2013-04-01 15:20:00,
2013-04-01 11:30:00,52.4,42.1,29.85,West,276,8.0,8.0,68,0.00,,,0.00,Wunderground v.1.15,2013-04-01 15:30:00,
2013-04-01 11:40:00,53.3,43.0,29.85,WNW,283,7.0,7.0,68,0.00,,,0.00,Wunderground v.1.15,2013-04-01 15:40:00,
2013-04-01 13:20:00,53.4,41.9,29.84,West,274,9.0,18.0,65,0.00,,,0.00,Wunderground v.1.15,2013-04-01 17:20:00,
2013-04-01 13:30:00,51.7,43.0,29.85,WNW,293,9.0,9.0,72,0.00,,,0.00,Wunderground v.1.15,2013-04-01 17:30:00,
2013-04-01 13:40:00,51.0,42.6,29.85,West,281,9.0,18.0,73,0.00,,,0.00,Wunderground v.1.15,2013-04-01 17:40:00,
2013-04-01 13:50:00,50.0,44.1,29.85,WNW,288,7.0,18.0,80,0.00,,,0.00,Wunderground v.1.15,2013-04-01 17:50:00,
2013-04-01 14:00:00,48.3,43.1,29.86,NW,305,7.0,18.0,82,0.00,,,0.00,Wunderground v.1.15,2013-04-01 18:00:00,
2013-04-01 14:10:00,48.5,45.7,29.86,SW,232,6.0,6.0,90,0.00,,,0.01,Wunderground v.1.15,2013-04-01 18:10:00,
2013-04-01 14:20:00,48.9,44.3,29.86,WSW,257,7.0,7.0,84,0.00,,,0.01,Wunderground v.1.15,2013-04-01 18:20:00,
2013-04-01 14:30:00,48.2,43.6,29.85,NW,319,6.0,8.0,84,0.00,,,0.01,Wunderground v.1.15,2013-04-01 18:30:00,
2013-04-01 14:40:00,47.9,43.6,29.85,NW,315,5.0,5.0,85,0.00,,,0.01,Wunderground v.1.15,2013-04-01 18:40:00,
2013-04-01 14:50:00,48.1,43.2,29.85,NW,316,4.0,7.0,83,0.00,,,0.01,Wunderground v.1.15,2013-04-01 18:50:00,
2013-04-01 15:00:00,49.5,43.9,29.84,WNW,290,5.0,8.0,81,0.00,,,0.01,Wunderground v.1.15,2013-04-01 19:00:00,
2013-04-01 15:10:00,51.0,44.4,29.84,West,276,8.0,8.0,78,0.00,,,0.01,Wunderground v.1.15,2013-04-01 19:10:00,
2013-04-01 15:20:00,51.6,42.5,29.84,West,269,7.0,28.0,71,0.00,,,0.01,Wunderground v.1.15,2013-04-01 19:20:00,
2013-04-01 15:30:00,52.4,42.5,29.83,West,275,7.0,28.0,69,0.00,,,0.01,Wunderground v.1.15,2013-04-01 19:30:00,